createdAt,value
2022-09-07T00:00:06.228Z,60.57
2022-09-07T00:02:07.729Z,60.16
2022-09-07T00:04:09.626Z,59.13
2022-09-07T00:06:12.801Z,60.07
2022-09-07T00:08:15.837Z,59.80
2022-09-07T00:10:17.544Z,60.66
2022-09-07T00:12:19.056Z,60.57
2022-09-07T00:14:20.785Z,61.44
2022-09-07T00:16:25.678Z,61.26
2022-09-07T00:18:27.298Z,61.69
2022-09-07T00:20:28.879Z,60.83
2022-09-07T00:22:30.424Z,59.83
2022-09-07T00:24:31.997Z,59.37
2022-09-07T00:26:33.522Z,59.35
2022-09-07T00:28:36.092Z,59.47
2022-09-07T00:30:41.961Z,59.73
2022-09-07T00:32:43.493Z,59.66
2022-09-07T00:34:45.023Z,59.38
2022-09-07T00:36:46.534Z,59.36
2022-09-07T00:38:48.410Z,59.80
2022-09-07T00:40:50.019Z,59.70
2022-09-07T00:42:51.546Z,59.94
2022-09-07T00:45:16.027Z,59.38
2022-09-07T00:47:46.203Z,58.79
2022-09-07T00:49:53.889Z,59.73
2022-09-07T00:52:02.241Z,59.63
2022-09-07T00:54:10.569Z,60.09
2022-09-07T00:56:13.111Z,59.46
2022-09-07T00:58:15.891Z,59.97
2022-09-07T01:00:17.656Z,60.09
2022-09-07T01:02:20.927Z,60.38
2022-09-07T01:04:23.595Z,61.19
2022-09-07T01:06:29.621Z,60.03
2022-09-07T01:08:31.780Z,59.69
2022-09-07T01:10:34.585Z,60.09
2022-09-07T01:12:36.095Z,60.90
2022-09-07T01:14:43.027Z,60.74
2022-09-07T01:17:04.673Z,61.19
2022-09-07T01:19:45.693Z,61.26
2022-09-07T01:21:53.104Z,61.01
2022-09-07T01:24:20.998Z,60.74
2022-09-07T01:26:37.661Z,60.31
2022-09-07T01:28:39.744Z,60.79
2022-09-07T01:30:51.638Z,60.69
2022-09-07T01:33:02.310Z,60.10
2022-09-07T01:35:12.232Z,60.34
2022-09-07T01:37:32.159Z,61.08
2022-09-07T01:39:56.665Z,59.88
2022-09-07T01:42:03.640Z,59.62
2022-09-07T01:44:18.220Z,61.77
2022-09-07T01:46:31.818Z,61.73
2022-09-07T01:48:36.346Z,60.24
2022-09-07T01:50:45.608Z,59.96
2022-09-07T01:52:59.146Z,61.48
2022-09-07T01:55:13.800Z,61.76
2022-09-07T01:57:27.111Z,61.37
2022-09-07T01:59:40.471Z,61.22
2022-09-07T02:01:49.764Z,61.33
2022-09-07T02:04:00.437Z,60.59
2022-09-07T02:06:11.042Z,61.15
2022-09-07T02:08:25.431Z,59.78
2022-09-07T02:10:36.998Z,60.99
2022-09-07T02:12:49.923Z,60.55
2022-09-07T02:14:57.247Z,60.06
2022-09-07T02:17:04.830Z,59.75
2022-09-07T02:19:12.805Z,60.13
2022-09-07T02:21:19.523Z,60.74
2022-09-07T02:23:26.014Z,61.97
2022-09-07T02:25:32.980Z,61.60
2022-09-07T02:27:43.856Z,61.82
2022-09-07T02:29:45.458Z,61.10
2022-09-07T02:31:47.465Z,60.64
2022-09-07T02:33:49.696Z,61.75
2022-09-07T02:35:52.056Z,61.03
2022-09-07T02:37:53.672Z,61.96
2022-09-07T02:39:55.393Z,61.35
2022-09-07T02:41:57.000Z,61.49
2022-09-07T02:43:59.149Z,61.58
2022-09-07T02:46:31.099Z,61.96
2022-09-07T02:48:38.803Z,62.22
2022-09-07T02:51:07.815Z,62.51
2022-09-07T02:53:47.574Z,70.66
2022-09-07T02:56:08.015Z,72.90
2022-09-07T02:58:31.729Z,73.74
2022-09-07T03:00:45.022Z,74.15
2022-09-07T03:03:04.826Z,73.56
2022-09-07T03:05:33.517Z,71.78
2022-09-07T03:07:45.280Z,73.42
2022-09-07T03:09:49.535Z,72.83
2022-09-07T03:11:51.840Z,71.75
2022-09-07T03:13:53.365Z,70.17
2022-09-07T03:15:56.353Z,71.30
2022-09-07T03:17:58.103Z,71.68
2022-09-07T03:20:00.187Z,72.47
2022-09-07T03:22:02.160Z,73.98
2022-09-07T03:24:03.929Z,73.75
2022-09-07T03:26:05.695Z,74.84
2022-09-07T03:28:07.522Z,75.18
2022-09-07T03:30:10.846Z,74.63
2022-09-07T03:32:12.399Z,75.15
2022-09-07T03:34:14.650Z,75.20
2022-09-07T03:36:16.249Z,70.49
2022-09-07T03:38:17.764Z,69.07
2022-09-07T03:40:19.418Z,72.26
2022-09-07T03:42:21.730Z,71.75
2022-09-07T03:44:23.302Z,68.27
2022-09-07T03:46:24.863Z,65.07
2022-09-07T03:48:28.177Z,63.27
2022-09-07T03:50:29.694Z,62.22
2022-09-07T03:52:31.362Z,62.57
2022-09-07T03:54:36.663Z,62.79
2022-09-07T03:56:40.523Z,62.07
2022-09-07T03:58:42.356Z,69.60
2022-09-07T04:00:43.888Z,76.09
2022-09-07T04:02:45.437Z,80.20
2022-09-07T04:04:47.239Z,81.00
2022-09-07T04:06:48.847Z,82.06
2022-09-07T04:08:50.515Z,82.68
2022-09-07T04:10:52.369Z,83.41
2022-09-07T04:12:53.863Z,83.31
2022-09-07T04:14:55.738Z,82.67
2022-09-07T04:16:57.465Z,81.15
2022-09-07T04:18:59.350Z,79.83
2022-09-07T04:21:00.940Z,77.56
2022-09-07T04:23:02.468Z,76.44
2022-09-07T04:25:04.191Z,76.79
2022-09-07T04:27:05.764Z,77.71
2022-09-07T04:29:08.674Z,73.60
2022-09-07T04:31:10.495Z,74.11
2022-09-07T04:33:13.299Z,73.82
2022-09-07T04:35:15.137Z,73.73
2022-09-07T04:37:16.731Z,75.32
2022-09-07T04:39:18.342Z,75.43
2022-09-07T04:41:19.981Z,75.02
2022-09-07T04:43:21.477Z,73.87
2022-09-07T04:45:22.970Z,69.42
2022-09-07T04:47:25.205Z,69.63
2022-09-07T04:49:26.707Z,74.66
2022-09-07T04:51:30.748Z,67.30
2022-09-07T04:53:33.469Z,65.04
2022-09-07T04:55:34.973Z,70.24
2022-09-07T04:57:36.579Z,69.57
2022-09-07T04:59:38.118Z,63.48
2022-09-07T05:01:40.019Z,62.73
2022-09-07T05:03:41.599Z,63.84
2022-09-07T05:05:43.110Z,72.52
2022-09-07T05:07:44.765Z,79.55
2022-09-07T05:09:47.196Z,83.05
2022-09-07T05:11:48.948Z,81.23
2022-09-07T05:13:51.006Z,78.92
2022-09-07T05:15:52.529Z,80.26
2022-09-07T05:17:54.076Z,79.41
2022-09-07T05:19:55.579Z,81.79
2022-09-07T05:21:57.787Z,79.82
2022-09-07T05:24:00.577Z,78.21
2022-09-07T05:26:02.093Z,73.64
2022-09-07T05:28:04.172Z,72.38
2022-09-07T05:30:06.585Z,72.37
2022-09-07T05:32:09.237Z,71.56
2022-09-07T05:36:33.361Z,69.75
2022-09-07T05:38:36.835Z,71.73
2022-09-07T05:40:40.724Z,71.98
2022-09-07T05:42:42.504Z,70.90
2022-09-07T05:44:45.181Z,66.97
2022-09-07T05:46:47.139Z,65.12
2022-09-07T05:48:48.675Z,66.44
2022-09-07T05:50:52.107Z,68.87
2022-09-07T05:52:53.829Z,69.84
2022-09-07T05:55:07.406Z,69.34
2022-09-07T05:57:16.843Z,66.50
2022-09-07T05:59:18.333Z,66.32
2022-09-07T06:01:19.854Z,64.54
2022-09-07T06:03:21.429Z,64.84
2022-09-07T06:05:23.049Z,64.70
2022-09-07T06:07:24.552Z,65.35
2022-09-07T06:09:30.244Z,66.93
2022-09-07T06:11:32.120Z,67.59
2022-09-07T06:13:34.214Z,67.92
2022-09-07T06:15:35.737Z,67.80
2022-09-07T06:17:37.277Z,67.11
2022-09-07T06:19:38.793Z,63.96
2022-09-07T06:21:40.389Z,62.79
2022-09-07T06:23:43.506Z,62.83
2022-09-07T06:25:49.781Z,65.89
2022-09-07T06:27:51.984Z,70.13
2022-09-07T06:29:53.483Z,70.92
2022-09-07T06:34:16.594Z,74.06
2022-09-07T06:36:20.570Z,66.73
2022-09-07T06:38:22.095Z,65.43
2022-09-07T06:40:23.590Z,65.62
2022-09-07T06:42:25.122Z,66.54
2022-09-07T06:44:26.622Z,66.54
2022-09-07T06:48:56.138Z,70.51
2022-09-07T06:51:00.034Z,69.51
2022-09-07T06:55:23.030Z,75.21
2022-09-07T06:57:24.606Z,78.98
2022-09-07T06:59:26.131Z,82.89
2022-09-07T07:01:29.145Z,84.53
2022-09-07T07:03:30.813Z,85.27
2022-09-07T07:05:32.411Z,85.89
2022-09-07T07:07:34.437Z,86.06
2022-09-07T07:09:35.950Z,86.59
2022-09-07T07:11:37.615Z,87.29
2022-09-07T07:13:40.574Z,87.51
2022-09-07T07:15:42.342Z,87.68
2022-09-07T07:17:43.887Z,87.74
2022-09-07T07:19:45.394Z,87.63
2022-09-07T07:22:10.714Z,87.88
2022-09-07T07:24:08.516Z,87.76
2022-09-07T07:26:19.315Z,87.88
2022-09-07T07:30:47.248Z,87.86
2022-09-07T07:32:48.754Z,87.74
2022-09-07T07:34:50.226Z,83.41
2022-09-07T07:36:51.693Z,78.72
2022-09-07T07:43:21.386Z,76.42
2022-09-07T07:47:49.461Z,76.60
2022-09-07T07:50:30.492Z,77.84
2022-09-07T07:54:37.289Z,81.73
2022-09-07T07:56:38.754Z,82.59
2022-09-07T07:58:43.641Z,83.14
2022-09-07T08:01:00.703Z,83.59
2022-09-07T08:03:02.402Z,84.03
2022-09-07T08:05:04.038Z,83.90
2022-09-07T08:07:10.238Z,76.81
2022-09-07T08:09:12.599Z,75.35
2022-09-07T08:11:19.684Z,74.35
2022-09-07T08:13:21.540Z,79.11
2022-09-07T08:15:23.314Z,80.46
2022-09-07T08:17:24.788Z,81.53
2022-09-07T08:19:26.204Z,82.10
2022-09-07T08:21:27.743Z,82.02
2022-09-07T08:23:31.603Z,78.64
2022-09-07T08:25:34.109Z,80.07
2022-09-07T08:27:36.089Z,80.25
2022-09-07T08:29:37.501Z,80.85
2022-09-07T08:31:38.979Z,79.08
2022-09-07T08:33:41.361Z,77.70
2022-09-07T08:35:43.099Z,79.02
2022-09-07T08:37:44.561Z,79.98
2022-09-07T08:39:46.096Z,80.33
2022-09-07T08:42:15.996Z,80.52
2022-09-07T08:44:42.875Z,78.86
2022-09-07T08:47:07.480Z,76.91
2022-09-07T08:49:21.681Z,76.63
2022-09-07T08:51:36.194Z,74.52
2022-09-07T08:53:45.261Z,77.79
2022-09-07T08:55:55.681Z,78.72
2022-09-07T08:58:04.814Z,78.14
2022-09-07T09:00:11.713Z,74.51
2022-09-07T09:02:35.148Z,76.81
2022-09-07T09:05:16.297Z,76.95
2022-09-07T09:07:29.207Z,75.74
2022-09-07T09:09:36.684Z,76.77
2022-09-07T09:11:48.084Z,72.29
2022-09-07T09:14:06.341Z,72.43
2022-09-07T09:16:34.046Z,71.83
2022-09-07T09:19:00.450Z,64.73
2022-09-07T09:21:02.529Z,69.44
2022-09-07T09:23:13.075Z,68.62
2022-09-07T09:25:22.923Z,70.39
2022-09-07T09:27:24.398Z,67.01
2022-09-07T09:29:25.868Z,62.26
2022-09-07T09:31:35.135Z,68.39
2022-09-07T09:33:36.669Z,70.64
2022-09-07T09:35:39.418Z,62.54
2022-09-07T09:37:42.396Z,63.71
2022-09-07T09:39:44.439Z,63.13
2022-09-07T09:41:46.279Z,67.85
2022-09-07T09:43:55.863Z,68.86
2022-09-07T09:46:13.673Z,69.56
2022-09-07T09:48:35.048Z,65.17
2022-09-07T09:53:02.661Z,59.07
2022-09-07T09:59:04.885Z,57.78
2022-09-07T10:00:23.656Z,58.89
2022-09-07T10:04:55.412Z,57.01
2022-09-07T10:07:09.694Z,61.93
2022-09-07T10:09:18.098Z,61.73
2022-09-07T10:13:59.935Z,67.80
2022-09-07T10:16:05.159Z,68.94
2022-09-07T10:18:09.568Z,69.77
2022-09-07T10:20:17.002Z,61.87
2022-09-07T10:22:37.506Z,64.14
2022-09-07T10:24:39.988Z,65.71
2022-09-07T10:26:44.394Z,67.54
2022-09-07T10:31:24.933Z,58.67
2022-09-07T10:34:25.659Z,62.94
2022-09-07T10:36:24.941Z,66.73
2022-09-07T10:38:30.023Z,64.22
2022-09-07T10:40:35.975Z,62.56
2022-09-07T10:43:20.741Z,65.66
2022-09-07T10:45:27.648Z,67.30
2022-09-07T10:47:55.128Z,65.65
2022-09-07T10:50:22.563Z,66.11
2022-09-07T10:52:42.784Z,58.72
2022-09-07T10:54:44.150Z,64.87
2022-09-07T10:57:07.634Z,65.15
2022-09-07T11:02:18.227Z,60.30
2022-09-07T11:04:55.092Z,57.71
2022-09-07T11:07:24.737Z,54.97
2022-09-07T11:09:48.132Z,52.53
2022-09-07T11:12:05.396Z,52.57
2022-09-07T11:14:16.082Z,51.69
2022-09-07T11:18:51.180Z,50.40
2022-09-07T11:20:56.577Z,48.73
2022-09-07T11:23:10.869Z,47.65
2022-09-07T11:25:29.654Z,47.70
2022-09-07T11:27:38.367Z,48.14
2022-09-07T11:29:48.818Z,47.39
2022-09-07T11:32:07.583Z,47.27
2022-09-07T11:34:29.209Z,47.05
2022-09-07T11:36:44.125Z,48.32
2022-09-07T11:39:19.650Z,49.60
2022-09-07T11:41:24.994Z,51.18
2022-09-07T11:43:41.281Z,51.64
2022-09-07T11:45:51.157Z,51.58
2022-09-07T11:47:59.276Z,52.73
2022-09-07T11:50:00.852Z,52.95
2022-09-07T11:52:11.157Z,53.47
2022-09-07T11:54:18.347Z,53.44
2022-09-07T11:56:45.820Z,53.13
2022-09-07T11:59:02.588Z,53.48
2022-09-07T12:01:25.197Z,53.99
2022-09-07T12:03:32.736Z,54.13
2022-09-07T12:05:52.328Z,54.20
2022-09-07T12:08:02.935Z,54.77
2022-09-07T12:10:16.954Z,54.44
2022-09-07T12:12:21.417Z,54.80
2022-09-07T12:14:59.898Z,54.82
2022-09-07T12:17:16.496Z,55.57
2022-09-07T12:19:28.257Z,55.20
2022-09-07T12:21:32.568Z,54.84
2022-09-07T12:23:34.111Z,55.31
2022-09-07T12:25:35.686Z,55.93
2022-09-07T12:27:38.629Z,54.53
2022-09-07T12:29:45.225Z,53.68
2022-09-07T12:34:32.915Z,54.77
2022-09-07T12:36:34.282Z,54.79
2022-09-07T12:39:17.255Z,54.73
2022-09-07T12:41:41.074Z,56.03
2022-09-07T12:43:51.615Z,56.01
2022-09-07T12:45:55.145Z,56.12
2022-09-07T12:47:59.511Z,56.15
2022-09-07T12:50:28.470Z,56.48
2022-09-07T12:52:47.269Z,56.67
2022-09-07T12:55:28.444Z,56.83
2022-09-07T12:57:51.458Z,56.45
2022-09-07T13:00:12.734Z,57.04
2022-09-07T13:02:35.418Z,57.27
2022-09-07T13:04:59.524Z,57.41
2022-09-07T13:07:16.597Z,57.35
2022-09-07T13:09:38.670Z,57.75
2022-09-07T13:11:40.651Z,57.96
2022-09-07T13:14:08.455Z,58.06
2022-09-07T13:16:16.695Z,57.95
2022-09-07T13:18:28.539Z,58.23
2022-09-07T13:20:33.881Z,58.14
2022-09-07T13:22:39.156Z,57.96
2022-09-07T13:25:18.129Z,57.51
2022-09-07T13:27:36.000Z,57.41
2022-09-07T13:29:52.573Z,57.38
2022-09-07T13:32:09.346Z,57.73
2022-09-07T13:34:32.373Z,57.88
2022-09-07T13:36:38.880Z,58.06
2022-09-07T13:38:42.449Z,57.56
2022-09-07T13:40:47.354Z,57.89
2022-09-07T13:42:50.809Z,57.96
2022-09-07T13:45:05.065Z,57.84
2022-09-07T13:47:38.970Z,58.52
2022-09-07T13:50:02.048Z,59.57
2022-09-07T13:52:33.267Z,60.27
2022-09-07T13:55:08.648Z,61.58
2022-09-07T13:57:28.027Z,61.98
2022-09-07T13:59:33.404Z,62.67
2022-09-07T14:01:35.224Z,63.76
2022-09-07T14:03:48.676Z,64.69
2022-09-07T14:06:13.855Z,64.96
2022-09-07T14:08:29.414Z,64.18
2022-09-07T14:10:30.852Z,64.33
2022-09-07T14:12:32.445Z,64.23
2022-09-07T14:14:33.869Z,65.44
2022-09-07T14:16:36.341Z,66.02
2022-09-07T14:18:39.818Z,66.06
2022-09-07T14:20:46.575Z,65.78
2022-09-07T14:22:53.033Z,65.80
2022-09-07T14:25:01.273Z,65.83
2022-09-07T14:27:04.037Z,65.37
2022-09-07T14:29:05.527Z,65.35
2022-09-07T14:31:15.008Z,64.97
2022-09-07T14:33:17.362Z,64.84
2022-09-07T14:35:22.099Z,64.83
2022-09-07T14:37:24.026Z,64.44
2022-09-07T14:39:27.534Z,64.11
2022-09-07T14:41:32.983Z,63.65
2022-09-07T14:43:37.042Z,63.57
2022-09-07T14:45:38.590Z,64.07
2022-09-07T14:47:40.639Z,64.42
2022-09-07T14:49:43.742Z,63.80
2022-09-07T14:51:45.832Z,63.37
2022-09-07T14:53:51.718Z,63.42
2022-09-07T14:56:02.159Z,63.35
2022-09-07T14:58:15.412Z,63.16
2022-09-07T15:00:46.593Z,63.31
2022-09-07T15:02:48.257Z,62.88
2022-09-07T15:05:15.140Z,62.63
2022-09-07T15:07:39.662Z,62.22
2022-09-07T15:09:41.124Z,62.41
2022-09-07T15:11:42.584Z,62.41
2022-09-07T15:13:45.730Z,62.36
2022-09-07T15:15:57.337Z,61.37
2022-09-07T15:18:07.804Z,61.52
2022-09-07T15:20:36.650Z,61.67
2022-09-07T15:22:38.140Z,61.83
2022-09-07T15:24:39.553Z,61.79
2022-09-07T15:29:12.071Z,61.48
2022-09-07T15:33:37.540Z,61.11
2022-09-07T15:35:38.953Z,60.94
2022-09-07T15:40:02.946Z,61.61
2022-09-07T15:44:28.334Z,61.43
2022-09-07T15:46:30.123Z,61.57
2022-09-07T15:48:31.673Z,61.65
2022-09-07T15:50:33.123Z,61.73
2022-09-07T15:52:34.579Z,62.02
2022-09-07T15:54:39.601Z,62.29
2022-09-07T15:56:44.418Z,62.13
2022-09-07T15:59:05.110Z,61.74
2022-09-07T16:03:28.611Z,61.56
2022-09-07T16:05:31.437Z,61.11
2022-09-07T16:09:55.160Z,61.25
2022-09-07T16:11:56.801Z,61.13
2022-09-07T16:14:03.192Z,60.27
2022-09-07T16:16:06.135Z,60.40
2022-09-07T16:18:07.662Z,60.34
2022-09-07T16:20:09.797Z,59.79
2022-09-07T16:23:13.194Z,59.79
2022-09-07T16:24:34.245Z,59.82
2022-09-07T16:26:35.925Z,59.39
2022-09-07T16:28:43.636Z,59.57
2022-09-07T16:30:45.162Z,60.14
2022-09-07T16:32:46.810Z,60.32
2022-09-07T16:34:49.066Z,60.43
2022-09-07T16:36:50.610Z,60.86
2022-09-07T16:39:00.546Z,61.09
2022-09-07T16:41:02.270Z,61.47
2022-09-07T16:43:03.699Z,61.81
2022-09-07T16:47:27.127Z,61.58
2022-09-07T16:49:28.797Z,61.48
2022-09-07T16:51:30.233Z,61.59
2022-09-07T16:53:34.502Z,61.82
2022-09-07T16:55:36.030Z,62.09
2022-09-07T16:59:58.921Z,62.49
2022-09-07T17:02:00.383Z,62.30
2022-09-07T17:04:05.570Z,62.69
2022-09-07T17:06:13.473Z,62.70
2022-09-07T17:08:14.948Z,62.44
2022-09-07T17:10:16.454Z,62.80
2022-09-07T17:12:17.916Z,63.30
2022-09-07T17:14:19.469Z,63.31
2022-09-07T17:16:24.425Z,63.40
2022-09-07T17:20:58.594Z,62.72
2022-09-07T17:23:01.477Z,62.39
2022-09-07T17:25:03.002Z,62.74
2022-09-07T17:27:04.910Z,64.00
2022-09-07T17:29:07.323Z,65.22
2022-09-07T17:32:23.848Z,65.30
2022-09-07T17:33:36.743Z,65.88
2022-09-07T17:35:38.162Z,65.53
2022-09-07T17:37:39.570Z,65.26
2022-09-07T17:39:41.131Z,64.63
2022-09-07T17:41:42.803Z,64.39
2022-09-07T17:43:45.698Z,64.08
2022-09-07T17:45:55.127Z,63.44
2022-09-07T17:47:56.581Z,63.61
2022-09-07T17:49:57.993Z,63.71
2022-09-07T17:52:00.942Z,63.49
2022-09-07T17:54:12.314Z,63.85
2022-09-07T17:56:16.292Z,63.75
2022-09-07T17:58:18.577Z,64.33
2022-09-07T18:00:20.107Z,64.08
2022-09-07T18:02:21.547Z,64.59
2022-09-07T18:04:23.768Z,66.05
2022-09-07T18:06:28.105Z,67.05
2022-09-07T18:08:30.335Z,68.33
2022-09-07T18:12:56.872Z,67.04
2022-09-07T18:14:58.433Z,66.58
2022-09-07T18:17:00.354Z,65.75
2022-09-07T18:19:07.362Z,65.30
2022-09-07T18:21:33.197Z,64.50
2022-09-07T18:23:35.724Z,64.40
2022-09-07T18:25:37.507Z,63.89
2022-09-07T18:27:39.849Z,64.49
2022-09-07T18:29:41.632Z,66.24
2022-09-07T18:31:43.127Z,68.35
2022-09-07T18:33:44.591Z,70.00
2022-09-07T18:35:46.762Z,70.93
2022-09-07T18:37:48.830Z,71.71
2022-09-07T18:39:51.539Z,71.56
2022-09-07T18:41:56.608Z,71.54
2022-09-07T18:43:58.362Z,69.56
2022-09-07T18:46:13.597Z,67.92
2022-09-07T18:48:15.035Z,67.53
2022-09-07T18:50:17.405Z,68.70
2022-09-07T18:54:42.318Z,66.74
2022-09-07T18:56:44.085Z,66.16
2022-09-07T18:58:47.364Z,65.95
2022-09-07T19:00:53.872Z,64.67
2022-09-07T19:02:55.446Z,64.45
2022-09-07T19:07:20.273Z,66.37
2022-09-07T19:09:21.709Z,68.14
2022-09-07T19:11:24.788Z,67.49
2022-09-07T19:13:26.298Z,66.44
2022-09-07T19:15:27.715Z,65.89
2022-09-07T19:17:29.236Z,66.38
2022-09-07T19:19:30.887Z,67.07
2022-09-07T19:21:38.782Z,66.80
2022-09-07T19:23:40.358Z,66.65
2022-09-07T19:25:42.041Z,66.21
2022-09-07T19:27:43.527Z,67.05
2022-09-07T19:29:44.959Z,68.81
2022-09-07T19:32:11.603Z,68.11
2022-09-07T19:34:13.077Z,66.10
2022-09-07T19:36:14.625Z,66.24
2022-09-07T19:38:16.072Z,66.18
2022-09-07T19:40:19.422Z,66.50
2022-09-07T19:42:22.249Z,67.01
2022-09-07T19:44:23.691Z,68.68
2022-09-07T19:46:25.715Z,68.54
2022-09-07T19:48:27.908Z,67.74
2022-09-07T19:50:30.893Z,66.92
2022-09-07T19:52:32.813Z,66.29
2022-09-07T19:54:34.295Z,66.50
2022-09-07T19:56:40.285Z,66.70
2022-09-07T19:58:43.963Z,67.07
2022-09-07T20:00:45.475Z,67.34
2022-09-07T20:02:49.244Z,67.57
2022-09-07T20:04:50.750Z,67.47
2022-09-07T20:06:52.298Z,67.23
2022-09-07T20:08:55.627Z,67.29
2022-09-07T20:11:02.410Z,67.18
2022-09-07T20:13:04.565Z,67.27
2022-09-07T20:15:06.475Z,67.56
2022-09-07T20:17:07.891Z,67.86
2022-09-07T20:19:11.697Z,67.56
2022-09-07T20:21:16.434Z,67.59
2022-09-07T20:23:17.856Z,67.66
2022-09-07T20:25:19.271Z,67.89
2022-09-07T20:27:20.668Z,68.52
2022-09-07T20:29:29.474Z,68.68
2022-09-07T20:31:31.058Z,68.15
2022-09-07T20:33:32.748Z,67.76
2022-09-07T20:35:34.335Z,67.34
2022-09-07T20:37:35.777Z,67.09
2022-09-07T20:39:39.612Z,67.74
2022-09-07T20:41:41.243Z,67.63
2022-09-07T20:43:42.708Z,68.32
2022-09-07T20:45:44.142Z,70.32
2022-09-07T20:47:45.647Z,69.83
2022-09-07T20:49:48.314Z,69.28
2022-09-07T20:51:49.818Z,70.02
2022-09-07T20:53:51.845Z,70.58
2022-09-07T20:56:14.372Z,69.43
2022-09-07T20:58:16.189Z,71.12
2022-09-07T21:00:17.739Z,71.64
2022-09-07T21:02:19.281Z,69.29
2022-09-07T21:04:20.847Z,67.94
2022-09-07T21:06:23.226Z,68.29
2022-09-07T21:08:24.769Z,67.77
2022-09-07T21:10:26.927Z,68.04
2022-09-07T21:12:28.368Z,68.18
2022-09-07T21:14:29.817Z,68.05
2022-09-07T21:16:31.514Z,67.70
2022-09-07T21:18:34.360Z,67.44
2022-09-07T21:20:35.834Z,67.57
2022-09-07T21:22:37.352Z,69.75
2022-09-07T21:24:38.831Z,71.79
2022-09-07T21:26:40.344Z,71.94
2022-09-07T21:28:41.821Z,69.73
2022-09-07T21:30:43.235Z,68.94
2022-09-07T21:32:44.793Z,68.57
2022-09-07T21:34:46.212Z,68.34
2022-09-07T21:36:47.806Z,68.29
2022-09-07T21:38:50.031Z,68.16
2022-09-07T21:40:51.500Z,67.98
2022-09-07T21:42:53.213Z,68.10
2022-09-07T21:44:54.631Z,67.73
2022-09-07T21:46:56.143Z,67.50
2022-09-07T21:48:58.285Z,67.74
2022-09-07T21:50:59.742Z,67.86
2022-09-07T21:53:01.547Z,68.34
2022-09-07T21:55:03.077Z,69.49
2022-09-07T21:57:04.880Z,69.77
2022-09-07T21:59:06.605Z,70.20
2022-09-07T22:01:13.732Z,72.22
2022-09-07T22:03:15.242Z,70.92
2022-09-07T22:05:16.746Z,69.59
2022-09-07T22:07:18.582Z,68.71
2022-09-07T22:09:20.235Z,67.39
2022-09-07T22:11:23.242Z,67.67
2022-09-07T22:13:24.714Z,67.90
2022-09-07T22:15:26.278Z,68.81
2022-09-07T22:17:27.695Z,68.48
2022-09-07T22:19:29.132Z,68.48
2022-09-07T22:21:31.442Z,69.12
2022-09-07T22:23:34.473Z,69.23
2022-09-07T22:25:36.093Z,68.70
2022-09-07T22:27:37.527Z,68.41
2022-09-07T22:29:38.938Z,68.77
2022-09-07T22:31:41.037Z,69.34
2022-09-07T22:33:43.444Z,69.38
2022-09-07T22:35:44.917Z,69.06
2022-09-07T22:37:46.420Z,68.78
2022-09-07T22:39:47.902Z,67.74
2022-09-07T22:41:49.390Z,67.85
2022-09-07T22:43:51.131Z,67.63
2022-09-07T22:45:52.634Z,68.05
2022-09-07T22:47:54.071Z,69.84
2022-09-07T22:49:55.499Z,68.72
2022-09-07T22:51:56.927Z,70.24
2022-09-07T22:53:58.809Z,72.01
2022-09-07T22:56:05.132Z,74.26
2022-09-07T22:58:06.557Z,76.68
2022-09-07T23:00:09.347Z,78.26
2022-09-07T23:02:10.798Z,73.13
2022-09-07T23:04:13.166Z,70.77
2022-09-07T23:06:41.945Z,72.09
2022-09-07T23:08:43.730Z,69.93
2022-09-07T23:10:45.474Z,68.38
2022-09-07T23:12:46.923Z,67.86
2022-09-07T23:14:48.361Z,68.76
2022-09-07T23:16:50.480Z,69.55
2022-09-07T23:18:53.061Z,68.95
2022-09-07T23:21:00.848Z,69.80
2022-09-07T23:23:02.328Z,69.46
2022-09-07T23:25:04.356Z,71.24
2022-09-07T23:27:06.609Z,70.05
2022-09-07T23:29:11.163Z,69.25
2022-09-07T23:31:12.678Z,68.84
2022-09-07T23:33:14.378Z,70.61
2022-09-07T23:35:16.751Z,74.46
2022-09-07T23:37:18.654Z,73.32
2022-09-07T23:39:20.170Z,71.19
2022-09-07T23:41:21.927Z,70.01
2022-09-07T23:43:24.904Z,69.35
2022-09-07T23:45:27.187Z,70.75
2022-09-07T23:47:28.884Z,70.71
2022-09-07T23:49:30.332Z,71.81
2022-09-07T23:51:31.751Z,72.66
2022-09-07T23:53:33.394Z,72.25
2022-09-07T23:55:34.954Z,70.71
2022-09-07T23:57:37.499Z,70.02
2022-09-07T23:59:38.921Z,69.24
